sensor_id;sensor_type;location;lat;lon;timestamp;P1;durP1;ratioP1;P2;durP2;ratioP2
6422;SDS011;3244;42.708;23.288;2023-06-10T00:01:10;5.93;;;5.43;;
6422;SDS011;3244;42.708;23.288;2023-06-10T00:03:37;8.00;;;5.10;;
6422;SDS011;3244;42.708;23.288;2023-06-10T00:06:05;6.53;;;4.88;;
6422;SDS011;3244;42.708;23.288;2023-06-10T00:08:32;5.93;;;5.53;;
6422;SDS011;3244;42.708;23.288;2023-06-10T00:10:58;5.70;;;5.20;;
6422;SDS011;3244;42.708;23.288;2023-06-10T00:13:25;6.45;;;5.88;;
6422;SDS011;3244;42.708;23.288;2023-06-10T00:15:52;6.40;;;6.00;;
6422;SDS011;3244;42.708;23.288;2023-06-10T00:18:18;6.10;;;5.60;;
6422;SDS011;3244;42.708;23.288;2023-06-10T00:20:47;6.10;;;5.55;;
6422;SDS011;3244;42.708;23.288;2023-06-10T00:23:19;6.00;;;5.60;;
6422;SDS011;3244;42.708;23.288;2023-06-10T00:25:46;6.32;;;5.82;;
6422;SDS011;3244;42.708;23.288;2023-06-10T00:28:12;8.60;;;5.55;;
6422;SDS011;3244;42.708;23.288;2023-06-10T00:30:39;10.02;;;6.25;;
6422;SDS011;3244;42.708;23.288;2023-06-10T00:33:06;5.95;;;5.53;;
6422;SDS011;3244;42.708;23.288;2023-06-10T00:35:32;6.32;;;5.72;;
6422;SDS011;3244;42.708;23.288;2023-06-10T00:37:59;5.40;;;5.00;;
6422;SDS011;3244;42.708;23.288;2023-06-10T00:40:27;10.32;;;9.50;;
6422;SDS011;3244;42.708;23.288;2023-06-10T00:42:54;21.08;;;18.98;;
6422;SDS011;3244;42.708;23.288;2023-06-10T00:45:20;23.95;;;16.73;;
6422;SDS011;3244;42.708;23.288;2023-06-10T00:47:47;15.85;;;14.35;;
6422;SDS011;3244;42.708;23.288;2023-06-10T00:50:14;15.02;;;13.77;;
6422;SDS011;3244;42.708;23.288;2023-06-10T00:52:41;13.15;;;10.20;;
6422;SDS011;3244;42.708;23.288;2023-06-10T00:55:09;9.77;;;8.60;;
6422;SDS011;3244;42.708;23.288;2023-06-10T00:57:38;10.45;;;8.38;;
6422;SDS011;3244;42.708;23.288;2023-06-10T01:00:06;8.82;;;7.97;;
6422;SDS011;3244;42.708;23.288;2023-06-10T01:02:35;8.25;;;7.32;;
6422;SDS011;3244;42.708;23.288;2023-06-10T01:05:02;7.07;;;6.43;;
6422;SDS011;3244;42.708;23.288;2023-06-10T01:07:31;7.80;;;6.95;;
6422;SDS011;3244;42.708;23.288;2023-06-10T01:10:05;7.63;;;6.78;;
6422;SDS011;3244;42.708;23.288;2023-06-10T01:12:40;7.30;;;6.60;;
6422;SDS011;3244;42.708;23.288;2023-06-10T01:15:13;6.72;;;6.13;;
6422;SDS011;3244;42.708;23.288;2023-06-10T01:17:53;9.80;;;6.72;;
6422;SDS011;3244;42.708;23.288;2023-06-10T01:20:23;8.85;;;6.53;;
6422;SDS011;3244;42.708;23.288;2023-06-10T01:22:53;6.88;;;6.18;;
6422;SDS011;3244;42.708;23.288;2023-06-10T01:25:20;13.45;;;6.70;;
6422;SDS011;3244;42.708;23.288;2023-06-10T01:27:52;9.98;;;6.95;;
6422;SDS011;3244;42.708;23.288;2023-06-10T01:30:25;7.60;;;6.82;;
6422;SDS011;3244;42.708;23.288;2023-06-10T01:32:55;12.65;;;7.30;;
6422;SDS011;3244;42.708;23.288;2023-06-10T01:35:25;7.57;;;6.50;;
6422;SDS011;3244;42.708;23.288;2023-06-10T01:37:56;7.88;;;7.10;;
6422;SDS011;3244;42.708;23.288;2023-06-10T01:40:26;8.88;;;7.32;;
6422;SDS011;3244;42.708;23.288;2023-06-10T01:42:54;7.25;;;6.65;;
6422;SDS011;3244;42.708;23.288;2023-06-10T01:45:21;7.28;;;6.75;;
6422;SDS011;3244;42.708;23.288;2023-06-10T01:47:47;7.82;;;7.13;;
6422;SDS011;3244;42.708;23.288;2023-06-10T01:50:14;7.80;;;7.05;;
6422;SDS011;3244;42.708;23.288;2023-06-10T01:52:41;8.75;;;6.45;;
6422;SDS011;3244;42.708;23.288;2023-06-10T01:55:09;10.02;;;7.45;;
6422;SDS011;3244;42.708;23.288;2023-06-10T01:57:36;8.05;;;6.95;;
6422;SDS011;3244;42.708;23.288;2023-06-10T02:00:03;7.35;;;6.80;;
6422;SDS011;3244;42.708;23.288;2023-06-10T02:02:30;7.28;;;6.55;;
6422;SDS011;3244;42.708;23.288;2023-06-10T02:04:57;10.10;;;6.63;;
6422;SDS011;3244;42.708;23.288;2023-06-10T02:07:24;12.25;;;6.70;;
6422;SDS011;3244;42.708;23.288;2023-06-10T02:09:50;7.82;;;7.13;;
6422;SDS011;3244;42.708;23.288;2023-06-10T02:12:18;7.35;;;6.75;;
6422;SDS011;3244;42.708;23.288;2023-06-10T02:14:45;9.05;;;6.53;;
6422;SDS011;3244;42.708;23.288;2023-06-10T02:17:12;6.32;;;5.90;;
6422;SDS011;3244;42.708;23.288;2023-06-10T02:19:40;6.55;;;5.85;;
6422;SDS011;3244;42.708;23.288;2023-06-10T02:22:08;6.93;;;6.43;;
6422;SDS011;3244;42.708;23.288;2023-06-10T02:24:35;8.32;;;6.63;;
6422;SDS011;3244;42.708;23.288;2023-06-10T02:27:03;8.25;;;6.30;;
6422;SDS011;3244;42.708;23.288;2023-06-10T02:29:33;7.05;;;6.22;;
6422;SDS011;3244;42.708;23.288;2023-06-10T02:32:00;6.93;;;6.32;;
6422;SDS011;3244;42.708;23.288;2023-06-10T02:34:28;7.35;;;6.72;;
6422;SDS011;3244;42.708;23.288;2023-06-10T02:36:54;7.53;;;6.82;;
6422;SDS011;3244;42.708;23.288;2023-06-10T02:39:21;7.05;;;6.35;;
6422;SDS011;3244;42.708;23.288;2023-06-10T02:41:48;7.72;;;6.47;;
6422;SDS011;3244;42.708;23.288;2023-06-10T02:44:15;6.68;;;6.10;;
6422;SDS011;3244;42.708;23.288;2023-06-10T02:46:43;7.18;;;6.55;;
6422;SDS011;3244;42.708;23.288;2023-06-10T02:49:09;8.27;;;6.38;;
6422;SDS011;3244;42.708;23.288;2023-06-10T02:51:37;7.25;;;6.57;;
6422;SDS011;3244;42.708;23.288;2023-06-10T02:54:04;6.93;;;6.22;;
6422;SDS011;3244;42.708;23.288;2023-06-10T02:56:31;7.65;;;7.10;;
6422;SDS011;3244;42.708;23.288;2023-06-10T02:58:58;8.15;;;7.35;;
6422;SDS011;3244;42.708;23.288;2023-06-10T03:01:25;7.78;;;7.13;;
6422;SDS011;3244;42.708;23.288;2023-06-10T03:03:53;7.82;;;6.95;;
6422;SDS011;3244;42.708;23.288;2023-06-10T03:06:21;9.40;;;7.13;;
6422;SDS011;3244;42.708;23.288;2023-06-10T03:08:49;7.93;;;6.50;;
6422;SDS011;3244;42.708;23.288;2023-06-10T03:11:16;7.97;;;7.25;;
6422;SDS011;3244;42.708;23.288;2023-06-10T03:13:44;9.00;;;7.32;;
6422;SDS011;3244;42.708;23.288;2023-06-10T03:16:11;7.43;;;6.93;;
6422;SDS011;3244;42.708;23.288;2023-06-10T03:18:38;8.20;;;7.55;;
6422;SDS011;3244;42.708;23.288;2023-06-10T03:21:06;9.98;;;7.10;;
6422;SDS011;3244;42.708;23.288;2023-06-10T03:23:33;9.27;;;6.82;;
6422;SDS011;3244;42.708;23.288;2023-06-10T03:26:00;8.23;;;7.60;;
6422;SDS011;3244;42.708;23.288;2023-06-10T03:28:27;7.50;;;7.00;;
6422;SDS011;3244;42.708;23.288;2023-06-10T03:30:54;7.82;;;7.22;;
6422;SDS011;3244;42.708;23.288;2023-06-10T03:33:20;8.15;;;7.43;;
6422;SDS011;3244;42.708;23.288;2023-06-10T03:35:47;8.50;;;7.72;;
6422;SDS011;3244;42.708;23.288;2023-06-10T03:38:15;9.10;;;7.55;;
6422;SDS011;3244;42.708;23.288;2023-06-10T03:40:42;8.93;;;7.65;;
6422;SDS011;3244;42.708;23.288;2023-06-10T03:43:09;7.68;;;7.18;;
6422;SDS011;3244;42.708;23.288;2023-06-10T03:45:36;7.05;;;6.55;;
6422;SDS011;3244;42.708;23.288;2023-06-10T03:48:03;7.90;;;7.30;;
6422;SDS011;3244;42.708;23.288;2023-06-10T03:50:31;8.13;;;6.78;;
6422;SDS011;3244;42.708;23.288;2023-06-10T03:52:58;7.13;;;6.43;;
6422;SDS011;3244;42.708;23.288;2023-06-10T03:55:26;7.45;;;6.28;;
6422;SDS011;3244;42.708;23.288;2023-06-10T03:57:53;6.82;;;6.25;;
6422;SDS011;3244;42.708;23.288;2023-06-10T04:00:19;8.32;;;7.20;;
6422;SDS011;3244;42.708;23.288;2023-06-10T04:02:47;8.60;;;7.38;;
6422;SDS011;3244;42.708;23.288;2023-06-10T04:05:17;7.40;;;6.80;;
6422;SDS011;3244;42.708;23.288;2023-06-10T04:07:46;8.30;;;6.70;;
6422;SDS011;3244;42.708;23.288;2023-06-10T04:10:13;7.43;;;6.70;;
6422;SDS011;3244;42.708;23.288;2023-06-10T04:12:42;7.03;;;6.63;;
6422;SDS011;3244;42.708;23.288;2023-06-10T04:15:08;7.57;;;6.88;;
6422;SDS011;3244;42.708;23.288;2023-06-10T04:17:35;6.97;;;6.13;;
6422;SDS011;3244;42.708;23.288;2023-06-10T04:20:02;9.13;;;7.18;;
6422;SDS011;3244;42.708;23.288;2023-06-10T04:22:32;10.35;;;6.78;;
6422;SDS011;3244;42.708;23.288;2023-06-10T04:24:59;6.55;;;6.10;;
6422;SDS011;3244;42.708;23.288;2023-06-10T04:27:26;7.32;;;6.75;;
6422;SDS011;3244;42.708;23.288;2023-06-10T04:29:54;7.93;;;6.30;;
6422;SDS011;3244;42.708;23.288;2023-06-10T04:32:20;9.18;;;6.07;;
6422;SDS011;3244;42.708;23.288;2023-06-10T04:34:47;6.50;;;6.10;;
6422;SDS011;3244;42.708;23.288;2023-06-10T04:37:13;6.30;;;5.90;;
6422;SDS011;3244;42.708;23.288;2023-06-10T04:39:40;7.55;;;6.85;;
6422;SDS011;3244;42.708;23.288;2023-06-10T04:42:07;5.97;;;5.57;;
6422;SDS011;3244;42.708;23.288;2023-06-10T04:44:34;6.20;;;5.78;;
6422;SDS011;3244;42.708;23.288;2023-06-10T04:47:02;6.30;;;5.68;;
6422;SDS011;3244;42.708;23.288;2023-06-10T04:49:29;6.10;;;5.60;;
6422;SDS011;3244;42.708;23.288;2023-06-10T04:51:56;9.35;;;6.90;;
6422;SDS011;3244;42.708;23.288;2023-06-10T04:54:23;9.73;;;7.30;;
6422;SDS011;3244;42.708;23.288;2023-06-10T04:56:49;6.93;;;6.40;;
6422;SDS011;3244;42.708;23.288;2023-06-10T04:59:16;6.53;;;5.93;;
6422;SDS011;3244;42.708;23.288;2023-06-10T05:01:43;7.72;;;7.03;;
6422;SDS011;3244;42.708;23.288;2023-06-10T05:04:11;7.75;;;7.22;;
6422;SDS011;3244;42.708;23.288;2023-06-10T05:06:37;8.27;;;7.43;;
6422;SDS011;3244;42.708;23.288;2023-06-10T05:09:04;7.90;;;7.30;;
6422;SDS011;3244;42.708;23.288;2023-06-10T05:11:31;6.70;;;6.03;;
6422;SDS011;3244;42.708;23.288;2023-06-10T05:13:57;7.50;;;6.93;;
6422;SDS011;3244;42.708;23.288;2023-06-10T05:16:24;7.57;;;7.00;;
6422;SDS011;3244;42.708;23.288;2023-06-10T05:18:50;6.93;;;6.32;;
6422;SDS011;3244;42.708;23.288;2023-06-10T05:21:18;15.15;;;12.43;;
6422;SDS011;3244;42.708;23.288;2023-06-10T05:23:45;7.75;;;7.10;;
6422;SDS011;3244;42.708;23.288;2023-06-10T05:26:12;8.52;;;7.80;;
6422;SDS011;3244;42.708;23.288;2023-06-10T05:28:39;7.63;;;6.78;;
6422;SDS011;3244;42.708;23.288;2023-06-10T05:31:05;8.02;;;7.43;;
6422;SDS011;3244;42.708;23.288;2023-06-10T05:33:32;7.15;;;6.30;;
6422;SDS011;3244;42.708;23.288;2023-06-10T05:35:59;6.65;;;6.20;;
6422;SDS011;3244;42.708;23.288;2023-06-10T05:38:27;6.53;;;5.90;;
6422;SDS011;3244;42.708;23.288;2023-06-10T05:40:54;37.45;;;27.67;;
6422;SDS011;3244;42.708;23.288;2023-06-10T05:43:21;32.75;;;24.42;;
6422;SDS011;3244;42.708;23.288;2023-06-10T05:45:48;12.85;;;11.63;;
6422;SDS011;3244;42.708;23.288;2023-06-10T05:48:15;11.02;;;8.75;;
6422;SDS011;3244;42.708;23.288;2023-06-10T05:50:42;21.65;;;17.05;;
6422;SDS011;3244;42.708;23.288;2023-06-10T05:53:13;21.38;;;18.08;;
6422;SDS011;3244;42.708;23.288;2023-06-10T05:55:41;11.32;;;9.80;;
6422;SDS011;3244;42.708;23.288;2023-06-10T05:58:10;7.15;;;6.65;;
6422;SDS011;3244;42.708;23.288;2023-06-10T06:00:38;11.38;;;10.18;;
6422;SDS011;3244;42.708;23.288;2023-06-10T06:03:06;10.18;;;9.15;;
6422;SDS011;3244;42.708;23.288;2023-06-10T06:05:33;19.98;;;15.43;;
6422;SDS011;3244;42.708;23.288;2023-06-10T06:08:02;20.40;;;17.05;;
6422;SDS011;3244;42.708;23.288;2023-06-10T06:10:29;17.73;;;13.73;;
6422;SDS011;3244;42.708;23.288;2023-06-10T06:12:57;9.32;;;8.43;;
6422;SDS011;3244;42.708;23.288;2023-06-10T06:15:24;8.77;;;8.13;;
6422;SDS011;3244;42.708;23.288;2023-06-10T06:17:51;9.55;;;8.75;;
6422;SDS011;3244;42.708;23.288;2023-06-10T06:20:18;18.75;;;12.18;;
6422;SDS011;3244;42.708;23.288;2023-06-10T06:22:45;11.88;;;10.65;;
6422;SDS011;3244;42.708;23.288;2023-06-10T06:25:11;15.38;;;8.60;;
6422;SDS011;3244;42.708;23.288;2023-06-10T06:27:38;7.18;;;6.50;;
6422;SDS011;3244;42.708;23.288;2023-06-10T06:30:07;14.98;;;6.28;;
6422;SDS011;3244;42.708;23.288;2023-06-10T06:32:34;9.23;;;6.82;;
6422;SDS011;3244;42.708;23.288;2023-06-10T06:35:01;6.18;;;5.55;;
6422;SDS011;3244;42.708;23.288;2023-06-10T06:37:28;6.22;;;5.72;;
6422;SDS011;3244;42.708;23.288;2023-06-10T06:39:55;5.97;;;5.47;;
6422;SDS011;3244;42.708;23.288;2023-06-10T06:42:21;6.25;;;5.68;;
6422;SDS011;3244;42.708;23.288;2023-06-10T06:44:48;6.10;;;5.53;;
6422;SDS011;3244;42.708;23.288;2023-06-10T06:47:16;6.90;;;5.45;;
6422;SDS011;3244;42.708;23.288;2023-06-10T06:49:44;11.52;;;5.15;;
6422;SDS011;3244;42.708;23.288;2023-06-10T06:52:11;8.57;;;4.80;;
6422;SDS011;3244;42.708;23.288;2023-06-10T06:54:38;5.32;;;4.90;;
6422;SDS011;3244;42.708;23.288;2023-06-10T06:57:05;5.88;;;4.93;;
6422;SDS011;3244;42.708;23.288;2023-06-10T06:59:32;6.68;;;5.13;;
6422;SDS011;3244;42.708;23.288;2023-06-10T07:01:59;15.55;;;13.13;;
6422;SDS011;3244;42.708;23.288;2023-06-10T07:04:27;26.98;;;20.10;;
6422;SDS011;3244;42.708;23.288;2023-06-10T07:06:54;23.77;;;15.73;;
6422;SDS011;3244;42.708;23.288;2023-06-10T07:09:20;8.70;;;7.90;;
6422;SDS011;3244;42.708;23.288;2023-06-10T07:11:47;7.78;;;5.50;;
6422;SDS011;3244;42.708;23.288;2023-06-10T07:14:14;8.13;;;5.72;;
6422;SDS011;3244;42.708;23.288;2023-06-10T07:16:40;7.53;;;5.88;;
6422;SDS011;3244;42.708;23.288;2023-06-10T07:19:07;8.68;;;5.60;;
6422;SDS011;3244;42.708;23.288;2023-06-10T07:21:35;9.27;;;4.97;;
6422;SDS011;3244;42.708;23.288;2023-06-10T07:24:03;5.00;;;4.57;;
6422;SDS011;3244;42.708;23.288;2023-06-10T07:26:30;4.50;;;4.13;;
6422;SDS011;3244;42.708;23.288;2023-06-10T07:28:56;4.95;;;4.00;;
6422;SDS011;3244;42.708;23.288;2023-06-10T07:31:23;4.05;;;3.78;;
6422;SDS011;3244;42.708;23.288;2023-06-10T07:33:50;5.45;;;4.00;;
6422;SDS011;3244;42.708;23.288;2023-06-10T07:36:17;4.80;;;3.85;;
6422;SDS011;3244;42.708;23.288;2023-06-10T07:38:45;5.03;;;3.75;;
6422;SDS011;3244;42.708;23.288;2023-06-10T07:41:12;4.47;;;4.07;;
6422;SDS011;3244;42.708;23.288;2023-06-10T07:43:39;6.10;;;3.53;;
6422;SDS011;3244;42.708;23.288;2023-06-10T07:46:05;4.28;;;4.07;;
6422;SDS011;3244;42.708;23.288;2023-06-10T07:48:32;5.22;;;4.55;;
6422;SDS011;3244;42.708;23.288;2023-06-10T07:50:59;7.72;;;6.53;;
6422;SDS011;3244;42.708;23.288;2023-06-10T07:53:25;9.07;;;8.18;;
6422;SDS011;3244;42.708;23.288;2023-06-10T07:55:53;9.52;;;8.68;;
6422;SDS011;3244;42.708;23.288;2023-06-10T07:58:20;7.78;;;3.97;;
6422;SDS011;3244;42.708;23.288;2023-06-10T08:00:47;5.97;;;3.85;;
6422;SDS011;3244;42.708;23.288;2023-06-10T08:03:14;5.57;;;3.63;;
6422;SDS011;3244;42.708;23.288;2023-06-10T08:05:41;4.88;;;4.25;;
6422;SDS011;3244;42.708;23.288;2023-06-10T08:08:07;7.63;;;4.20;;
6422;SDS011;3244;42.708;23.288;2023-06-10T08:10:35;6.28;;;3.65;;
6422;SDS011;3244;42.708;23.288;2023-06-10T08:13:03;5.28;;;3.67;;
6422;SDS011;3244;42.708;23.288;2023-06-10T08:15:29;4.00;;;3.80;;
6422;SDS011;3244;42.708;23.288;2023-06-10T08:17:56;4.47;;;4.07;;
6422;SDS011;3244;42.708;23.288;2023-06-10T08:20:23;9.68;;;6.30;;
6422;SDS011;3244;42.708;23.288;2023-06-10T08:22:49;6.35;;;5.85;;
6422;SDS011;3244;42.708;23.288;2023-06-10T08:25:16;5.13;;;4.32;;
6422;SDS011;3244;42.708;23.288;2023-06-10T08:27:43;4.95;;;4.55;;
6422;SDS011;3244;42.708;23.288;2023-06-10T08:30:11;4.20;;;4.00;;
6422;SDS011;3244;42.708;23.288;2023-06-10T08:32:38;12.15;;;11.15;;
6422;SDS011;3244;42.708;23.288;2023-06-10T08:35:05;3.90;;;3.60;;
6422;SDS011;3244;42.708;23.288;2023-06-10T08:37:32;3.85;;;3.65;;
6422;SDS011;3244;42.708;23.288;2023-06-10T08:39:58;3.70;;;3.50;;
6422;SDS011;3244;42.708;23.288;2023-06-10T08:42:27;4.13;;;3.83;;
6422;SDS011;3244;42.708;23.288;2023-06-10T08:45:01;3.40;;;3.10;;
6422;SDS011;3244;42.708;23.288;2023-06-10T08:47:30;2.92;;;2.83;;
6422;SDS011;3244;42.708;23.288;2023-06-10T08:49:57;3.10;;;2.90;;
6422;SDS011;3244;42.708;23.288;2023-06-10T08:52:29;3.28;;;3.08;;
6422;SDS011;3244;42.708;23.288;2023-06-10T08:55:04;3.50;;;3.30;;
6422;SDS011;3244;42.708;23.288;2023-06-10T08:57:36;2.60;;;2.50;;
6422;SDS011;3244;42.708;23.288;2023-06-10T09:00:03;3.08;;;2.20;;
6422;SDS011;3244;42.708;23.288;2023-06-10T09:02:33;2.78;;;2.67;;
6422;SDS011;3244;42.708;23.288;2023-06-10T09:05:01;2.83;;;2.70;;
6422;SDS011;3244;42.708;23.288;2023-06-10T09:07:29;5.57;;;3.05;;
6422;SDS011;3244;42.708;23.288;2023-06-10T09:09:59;3.40;;;2.97;;
6422;SDS011;3244;42.708;23.288;2023-06-10T09:12:28;3.50;;;3.20;;
6422;SDS011;3244;42.708;23.288;2023-06-10T09:14:54;3.00;;;2.75;;
6422;SDS011;3244;42.708;23.288;2023-06-10T09:17:21;3.13;;;3.03;;
6422;SDS011;3244;42.708;23.288;2023-06-10T09:19:49;3.38;;;3.17;;
6422;SDS011;3244;42.708;23.288;2023-06-10T09:22:18;4.28;;;3.28;;
6422;SDS011;3244;42.708;23.288;2023-06-10T09:24:46;4.78;;;2.80;;
6422;SDS011;3244;42.708;23.288;2023-06-10T09:27:12;4.20;;;3.03;;
6422;SDS011;3244;42.708;23.288;2023-06-10T09:29:46;3.53;;;3.25;;
6422;SDS011;3244;42.708;23.288;2023-06-10T09:32:14;3.33;;;3.13;;
6422;SDS011;3244;42.708;23.288;2023-06-10T09:34:43;3.15;;;2.85;;
6422;SDS011;3244;42.708;23.288;2023-06-10T09:37:12;2.58;;;2.47;;
6422;SDS011;3244;42.708;23.288;2023-06-10T09:39:39;4.15;;;3.08;;
6422;SDS011;3244;42.708;23.288;2023-06-10T09:42:15;3.63;;;3.03;;
6422;SDS011;3244;42.708;23.288;2023-06-10T09:44:48;4.25;;;3.30;;
6422;SDS011;3244;42.708;23.288;2023-06-10T09:47:19;3.88;;;2.97;;
6422;SDS011;3244;42.708;23.288;2023-06-10T09:49:47;4.15;;;3.72;;
6422;SDS011;3244;42.708;23.288;2023-06-10T09:52:15;4.25;;;3.03;;
6422;SDS011;3244;42.708;23.288;2023-06-10T09:54:47;3.63;;;3.30;;
6422;SDS011;3244;42.708;23.288;2023-06-10T09:57:14;3.05;;;2.85;;
6422;SDS011;3244;42.708;23.288;2023-06-10T09:59:43;3.05;;;2.83;;
6422;SDS011;3244;42.708;23.288;2023-06-10T10:02:13;3.22;;;3.03;;
6422;SDS011;3244;42.708;23.288;2023-06-10T10:04:40;3.42;;;2.72;;
6422;SDS011;3244;42.708;23.288;2023-06-10T10:07:07;3.00;;;2.80;;
6422;SDS011;3244;42.708;23.288;2023-06-10T10:09:36;3.50;;;3.17;;
6422;SDS011;3244;42.708;23.288;2023-06-10T10:12:04;5.78;;;3.05;;
6422;SDS011;3244;42.708;23.288;2023-06-10T10:14:35;3.20;;;3.00;;
6422;SDS011;3244;42.708;23.288;2023-06-10T10:17:04;2.95;;;2.63;;
6422;SDS011;3244;42.708;23.288;2023-06-10T10:19:34;6.93;;;6.38;;
6422;SDS011;3244;42.708;23.288;2023-06-10T10:22:07;15.32;;;10.93;;
6422;SDS011;3244;42.708;23.288;2023-06-10T10:24:39;7.93;;;7.22;;
6422;SDS011;3244;42.708;23.288;2023-06-10T10:27:14;4.28;;;3.88;;
6422;SDS011;3244;42.708;23.288;2023-06-10T10:29:45;2.83;;;2.35;;
6422;SDS011;3244;42.708;23.288;2023-06-10T10:32:14;2.78;;;2.50;;
6422;SDS011;3244;42.708;23.288;2023-06-10T10:34:43;2.38;;;2.28;;
6422;SDS011;3244;42.708;23.288;2023-06-10T10:37:17;2.50;;;2.40;;
6422;SDS011;3244;42.708;23.288;2023-06-10T10:39:45;2.03;;;1.80;;
6422;SDS011;3244;42.708;23.288;2023-06-10T10:42:12;7.70;;;5.85;;
6422;SDS011;3244;42.708;23.288;2023-06-10T10:44:40;2.50;;;1.92;;
6422;SDS011;3244;42.708;23.288;2023-06-10T10:47:07;2.72;;;2.55;;
6422;SDS011;3244;42.708;23.288;2023-06-10T10:49:35;3.67;;;2.15;;
6422;SDS011;3244;42.708;23.288;2023-06-10T10:52:03;2.42;;;2.22;;
6422;SDS011;3244;42.708;23.288;2023-06-10T10:54:32;2.08;;;1.98;;
6422;SDS011;3244;42.708;23.288;2023-06-10T10:57:10;2.78;;;2.30;;
6422;SDS011;3244;42.708;23.288;2023-06-10T10:59:45;4.43;;;4.13;;
6422;SDS011;3244;42.708;23.288;2023-06-10T11:02:17;17.30;;;15.32;;
6422;SDS011;3244;42.708;23.288;2023-06-10T11:04:45;18.58;;;15.82;;
6422;SDS011;3244;42.708;23.288;2023-06-10T11:07:13;7.43;;;6.90;;
6422;SDS011;3244;42.708;23.288;2023-06-10T11:09:56;13.13;;;9.02;;
6422;SDS011;3244;42.708;23.288;2023-06-10T11:12:26;6.32;;;4.97;;
6422;SDS011;3244;42.708;23.288;2023-06-10T11:15:07;5.30;;;3.53;;
6422;SDS011;3244;42.708;23.288;2023-06-10T11:17:34;14.68;;;12.10;;
6422;SDS011;3244;42.708;23.288;2023-06-10T11:20:01;7.05;;;6.22;;
6422;SDS011;3244;42.708;23.288;2023-06-10T11:22:28;33.10;;;24.77;;
6422;SDS011;3244;42.708;23.288;2023-06-10T11:24:54;9.85;;;8.88;;
6422;SDS011;3244;42.708;23.288;2023-06-10T11:27:25;3.70;;;3.10;;
6422;SDS011;3244;42.708;23.288;2023-06-10T11:29:55;3.40;;;3.20;;
6422;SDS011;3244;42.708;23.288;2023-06-10T11:32:23;3.78;;;3.50;;
6422;SDS011;3244;42.708;23.288;2023-06-10T11:34:51;5.97;;;3.75;;
6422;SDS011;3244;42.708;23.288;2023-06-10T11:37:19;3.88;;;3.58;;
6422;SDS011;3244;42.708;23.288;2023-06-10T11:39:46;3.83;;;3.63;;
6422;SDS011;3244;42.708;23.288;2023-06-10T11:42:13;3.83;;;3.53;;
6422;SDS011;3244;42.708;23.288;2023-06-10T11:44:48;6.35;;;4.10;;
6422;SDS011;3244;42.708;23.288;2023-06-10T11:47:15;3.40;;;3.10;;
6422;SDS011;3244;42.708;23.288;2023-06-10T11:49:42;11.55;;;6.93;;
6422;SDS011;3244;42.708;23.288;2023-06-10T11:52:09;4.18;;;3.88;;
6422;SDS011;3244;42.708;23.288;2023-06-10T11:54:36;4.28;;;3.85;;
6422;SDS011;3244;42.708;23.288;2023-06-10T11:57:03;6.28;;;5.82;;
6422;SDS011;3244;42.708;23.288;2023-06-10T11:59:30;3.08;;;2.88;;
6422;SDS011;3244;42.708;23.288;2023-06-10T12:01:58;3.15;;;2.95;;
6422;SDS011;3244;42.708;23.288;2023-06-10T12:04:25;4.35;;;2.83;;
6422;SDS011;3244;42.708;23.288;2023-06-10T12:06:52;6.18;;;2.72;;
6422;SDS011;3244;42.708;23.288;2023-06-10T12:09:20;24.48;;;18.88;;
6422;SDS011;3244;42.708;23.288;2023-06-10T12:11:49;8.07;;;6.90;;
6422;SDS011;3244;42.708;23.288;2023-06-10T12:17:20;4.40;;;3.92;;
6422;SDS011;3244;42.708;23.288;2023-06-10T12:19:47;3.63;;;3.30;;
6422;SDS011;3244;42.708;23.288;2023-06-10T12:22:14;5.68;;;5.18;;
6422;SDS011;3244;42.708;23.288;2023-06-10T12:24:44;4.88;;;4.03;;
6422;SDS011;3244;42.708;23.288;2023-06-10T12:27:11;3.28;;;3.08;;
6422;SDS011;3244;42.708;23.288;2023-06-10T12:29:38;3.25;;;2.88;;
6422;SDS011;3244;42.708;23.288;2023-06-10T12:32:05;3.20;;;3.00;;
6422;SDS011;3244;42.708;23.288;2023-06-10T12:34:34;2.70;;;2.50;;
6422;SDS011;3244;42.708;23.288;2023-06-10T12:37:03;4.82;;;3.25;;
6422;SDS011;3244;42.708;23.288;2023-06-10T12:39:31;2.95;;;2.75;;
6422;SDS011;3244;42.708;23.288;2023-06-10T12:41:58;3.70;;;3.50;;
6422;SDS011;3244;42.708;23.288;2023-06-10T12:44:29;3.50;;;3.30;;
6422;SDS011;3244;42.708;23.288;2023-06-10T12:46:56;5.53;;;4.97;;
6422;SDS011;3244;42.708;23.288;2023-06-10T12:49:23;3.40;;;3.20;;
6422;SDS011;3244;42.708;23.288;2023-06-10T12:51:52;3.78;;;3.47;;
6422;SDS011;3244;42.708;23.288;2023-06-10T12:54:20;3.97;;;3.28;;
6422;SDS011;3244;42.708;23.288;2023-06-10T12:56:46;32.88;;;21.38;;
6422;SDS011;3244;42.708;23.288;2023-06-10T12:59:13;15.98;;;13.45;;
6422;SDS011;3244;42.708;23.288;2023-06-10T13:01:40;4.25;;;3.72;;
6422;SDS011;3244;42.708;23.288;2023-06-10T13:04:07;3.88;;;3.67;;
6422;SDS011;3244;42.708;23.288;2023-06-10T13:06:34;4.18;;;3.88;;
6422;SDS011;3244;42.708;23.288;2023-06-10T13:09:06;5.82;;;5.35;;
6422;SDS011;3244;42.708;23.288;2023-06-10T13:11:33;11.35;;;10.20;;
6422;SDS011;3244;42.708;23.288;2023-06-10T13:14:01;13.80;;;4.90;;
6422;SDS011;3244;42.708;23.288;2023-06-10T13:16:29;4.95;;;4.32;;
6422;SDS011;3244;42.708;23.288;2023-06-10T13:18:56;3.70;;;3.50;;
6422;SDS011;3244;42.708;23.288;2023-06-10T13:21:23;5.20;;;4.00;;
6422;SDS011;3244;42.708;23.288;2023-06-10T13:23:50;4.35;;;3.95;;
6422;SDS011;3244;42.708;23.288;2023-06-10T13:26:18;5.82;;;3.67;;
6422;SDS011;3244;42.708;23.288;2023-06-10T13:28:45;6.10;;;3.45;;
6422;SDS011;3244;42.708;23.288;2023-06-10T13:31:12;4.32;;;3.92;;
6422;SDS011;3244;42.708;23.288;2023-06-10T13:33:39;5.97;;;4.55;;
6422;SDS011;3244;42.708;23.288;2023-06-10T13:36:05;4.60;;;4.20;;
6422;SDS011;3244;42.708;23.288;2023-06-10T13:38:32;5.90;;;4.38;;
6422;SDS011;3244;42.708;23.288;2023-06-10T13:40:59;5.97;;;4.93;;
6422;SDS011;3244;42.708;23.288;2023-06-10T13:43:27;6.10;;;3.90;;
6422;SDS011;3244;42.708;23.288;2023-06-10T13:45:54;4.00;;;3.70;;
6422;SDS011;3244;42.708;23.288;2023-06-10T13:48:21;6.43;;;3.97;;
6422;SDS011;3244;42.708;23.288;2023-06-10T13:50:47;7.47;;;4.30;;
6422;SDS011;3244;42.708;23.288;2023-06-10T13:53:14;4.07;;;3.80;;
6422;SDS011;3244;42.708;23.288;2023-06-10T13:55:41;6.55;;;3.72;;
6422;SDS011;3244;42.708;23.288;2023-06-10T13:58:08;4.60;;;4.22;;
6422;SDS011;3244;42.708;23.288;2023-06-10T14:00:36;4.43;;;4.03;;
6422;SDS011;3244;42.708;23.288;2023-06-10T14:03:02;6.25;;;4.60;;
6422;SDS011;3244;42.708;23.288;2023-06-10T14:05:29;5.35;;;4.47;;
6422;SDS011;3244;42.708;23.288;2023-06-10T14:07:56;4.28;;;3.97;;
6422;SDS011;3244;42.708;23.288;2023-06-10T14:10:23;4.47;;;4.07;;
6422;SDS011;3244;42.708;23.288;2023-06-10T14:12:50;5.75;;;3.78;;
6422;SDS011;3244;42.708;23.288;2023-06-10T14:15:17;4.75;;;4.05;;
6422;SDS011;3244;42.708;23.288;2023-06-10T14:17:45;4.25;;;3.85;;
6422;SDS011;3244;42.708;23.288;2023-06-10T14:20:12;4.38;;;3.97;;
6422;SDS011;3244;42.708;23.288;2023-06-10T14:22:39;6.82;;;4.05;;
6422;SDS011;3244;42.708;23.288;2023-06-10T14:25:06;4.97;;;4.20;;
6422;SDS011;3244;42.708;23.288;2023-06-10T14:27:33;5.28;;;4.78;;
6422;SDS011;3244;42.708;23.288;2023-06-10T14:30:00;5.10;;;4.35;;
6422;SDS011;3244;42.708;23.288;2023-06-10T14:32:28;6.20;;;4.97;;
6422;SDS011;3244;42.708;23.288;2023-06-10T14:34:56;7.10;;;4.05;;
6422;SDS011;3244;42.708;23.288;2023-06-10T14:37:22;6.68;;;4.90;;
6422;SDS011;3244;42.708;23.288;2023-06-10T14:39:49;4.40;;;3.63;;
6422;SDS011;3244;42.708;23.288;2023-06-10T14:42:16;4.15;;;3.85;;
6422;SDS011;3244;42.708;23.288;2023-06-10T14:44:42;4.47;;;3.67;;
6422;SDS011;3244;42.708;23.288;2023-06-10T14:47:09;4.43;;;3.97;;
6422;SDS011;3244;42.708;23.288;2023-06-10T14:49:36;4.07;;;3.83;;
6422;SDS011;3244;42.708;23.288;2023-06-10T14:52:04;3.55;;;3.33;;
6422;SDS011;3244;42.708;23.288;2023-06-10T14:54:31;3.88;;;3.67;;
6422;SDS011;3244;42.708;23.288;2023-06-10T14:56:58;4.35;;;3.95;;
6422;SDS011;3244;42.708;23.288;2023-06-10T14:59:25;3.72;;;3.53;;
6422;SDS011;3244;42.708;23.288;2023-06-10T15:01:51;4.47;;;3.67;;
6422;SDS011;3244;42.708;23.288;2023-06-10T15:04:18;5.32;;;3.25;;